createdAt,value
2017-10-03T00:01:34.082Z,9.13
2017-10-03T00:04:01.770Z,10.03
2017-10-03T00:06:29.483Z,9.70
2017-10-03T00:08:57.334Z,8.17
2017-10-03T00:11:25.140Z,9.63
2017-10-03T00:13:52.879Z,9.57
2017-10-03T00:16:20.578Z,9.77
2017-10-03T00:18:48.299Z,8.10
2017-10-03T00:21:15.990Z,9.43
2017-10-03T00:23:43.700Z,9.27
2017-10-03T00:26:11.435Z,8.73
2017-10-03T00:28:39.106Z,10.03
2017-10-03T00:31:07.040Z,7.47
2017-10-03T00:33:34.807Z,8.03
2017-10-03T00:36:02.581Z,10.00
2017-10-03T00:38:30.332Z,8.70
2017-10-03T00:40:58.059Z,8.40
2017-10-03T00:43:25.782Z,8.93
2017-10-03T00:45:53.462Z,8.87
2017-10-03T00:48:21.773Z,9.10
2017-10-03T00:50:49.529Z,9.50
2017-10-03T00:53:17.208Z,9.37
2017-10-03T00:55:44.982Z,9.43
2017-10-03T00:58:12.742Z,9.30
2017-10-03T01:00:40.428Z,8.40
2017-10-03T01:03:08.248Z,9.63
2017-10-03T01:05:35.982Z,8.00
2017-10-03T01:08:03.679Z,9.40
2017-10-03T01:10:31.433Z,7.70
2017-10-03T01:12:59.151Z,9.00
2017-10-03T01:15:26.926Z,10.03
2017-10-03T01:17:54.654Z,10.07
2017-10-03T01:20:22.458Z,8.57
2017-10-03T01:22:50.162Z,9.10
2017-10-03T01:25:17.841Z,9.97
2017-10-03T01:27:45.588Z,9.97
2017-10-03T01:30:13.249Z,8.40
2017-10-03T01:32:40.984Z,9.43
2017-10-03T01:35:08.725Z,7.63
2017-10-03T01:40:34.309Z,7.57
2017-10-03T01:43:02.015Z,7.20
2017-10-03T01:45:29.767Z,7.60
2017-10-03T01:47:57.440Z,8.17
2017-10-03T01:50:25.180Z,8.63
2017-10-03T01:52:52.986Z,7.80
2017-10-03T01:55:20.844Z,9.37
2017-10-03T01:57:48.623Z,7.77
2017-10-03T02:00:16.353Z,8.50
2017-10-03T02:02:44.031Z,8.70
2017-10-03T02:05:11.884Z,9.57
2017-10-03T02:07:39.558Z,10.77
2017-10-03T02:10:07.299Z,11.73
2017-10-03T02:12:35.060Z,11.30
2017-10-03T02:15:02.793Z,11.30
2017-10-03T02:17:30.603Z,10.90
2017-10-03T02:19:58.312Z,10.70
2017-10-03T02:22:25.999Z,12.17
2017-10-03T02:24:53.725Z,11.33
2017-10-03T02:27:21.443Z,9.17
2017-10-03T02:29:49.184Z,9.80
2017-10-03T02:32:16.885Z,9.93
2017-10-03T02:34:44.605Z,9.27
2017-10-03T02:37:12.368Z,10.63
2017-10-03T02:39:40.075Z,9.50
2017-10-03T02:42:07.752Z,9.27
2017-10-03T02:44:35.488Z,10.43
2017-10-03T02:47:03.250Z,10.00
2017-10-03T02:49:31.013Z,10.27
2017-10-03T02:51:58.876Z,9.90
2017-10-03T02:54:26.564Z,10.07
2017-10-03T02:56:54.263Z,9.80
2017-10-03T02:59:22.058Z,10.97
2017-10-03T03:01:49.732Z,11.00
2017-10-03T03:04:17.471Z,10.90
2017-10-03T03:06:45.144Z,8.90
2017-10-03T03:09:12.877Z,11.10
2017-10-03T03:11:40.647Z,8.80
2017-10-03T03:14:08.335Z,9.30
2017-10-03T03:16:36.080Z,10.40
2017-10-03T03:19:03.837Z,11.13
2017-10-03T03:21:31.544Z,12.30
2017-10-03T03:23:59.335Z,10.10
2017-10-03T03:26:27.025Z,9.60
2017-10-03T03:28:54.712Z,8.27
2017-10-03T03:31:22.441Z,9.10
2017-10-03T03:33:50.155Z,7.87
2017-10-03T03:36:18.026Z,8.30
2017-10-03T03:38:45.716Z,8.87
2017-10-03T03:41:13.508Z,7.87
2017-10-03T03:43:41.279Z,8.97
2017-10-03T03:46:09.096Z,8.07
2017-10-03T03:48:36.848Z,7.00
2017-10-03T03:51:04.638Z,6.60
2017-10-03T03:53:32.429Z,5.80
2017-10-03T03:56:00.211Z,6.90
2017-10-03T03:58:28.741Z,6.17
2017-10-03T04:00:56.463Z,6.60
2017-10-03T04:03:24.157Z,7.20
2017-10-03T04:05:51.943Z,7.57
2017-10-03T04:08:19.688Z,7.17
2017-10-03T04:10:47.408Z,7.00
2017-10-03T04:13:15.095Z,6.57
2017-10-03T04:15:42.851Z,5.67
2017-10-03T04:18:10.656Z,6.63
2017-10-03T04:20:38.432Z,7.53
2017-10-03T04:23:06.204Z,7.33
2017-10-03T04:25:34.075Z,8.10
2017-10-03T04:28:01.757Z,8.20
2017-10-03T04:30:29.423Z,7.03
2017-10-03T04:32:57.176Z,6.67
2017-10-03T04:35:24.863Z,6.70
2017-10-03T04:37:52.626Z,8.00
2017-10-03T04:40:20.335Z,7.17
2017-10-03T04:42:47.991Z,6.60
2017-10-03T04:45:15.749Z,7.33
2017-10-03T04:47:43.701Z,6.30
2017-10-03T04:50:11.457Z,5.90
2017-10-03T04:52:39.159Z,6.50
2017-10-03T04:55:06.937Z,7.10
2017-10-03T04:57:34.652Z,6.97
2017-10-03T05:00:02.371Z,7.10
2017-10-03T05:02:30.088Z,7.13
2017-10-03T05:04:57.803Z,8.10
2017-10-03T05:07:25.495Z,6.77
2017-10-03T05:09:53.224Z,7.37
2017-10-03T05:12:20.909Z,7.70
2017-10-03T05:14:48.616Z,7.97
2017-10-03T05:17:16.532Z,7.40
2017-10-03T05:19:44.198Z,8.87
2017-10-03T05:22:11.943Z,7.50
2017-10-03T05:24:39.665Z,6.77
2017-10-03T05:27:07.414Z,7.63
2017-10-03T05:29:35.091Z,7.10
2017-10-03T05:32:02.832Z,9.97
2017-10-03T05:34:30.577Z,11.40
2017-10-03T05:36:58.347Z,13.10
2017-10-03T05:39:26.095Z,11.50
2017-10-03T05:41:53.845Z,9.80
2017-10-03T05:44:21.609Z,8.40
2017-10-03T05:46:49.359Z,8.43
2017-10-03T05:49:18.083Z,8.57
2017-10-03T05:51:46.179Z,7.60
2017-10-03T05:54:13.888Z,9.60
2017-10-03T05:56:41.610Z,8.67
2017-10-03T05:59:09.344Z,11.60
2017-10-03T06:01:37.174Z,11.50
2017-10-03T06:04:04.950Z,8.90
2017-10-03T06:06:32.733Z,9.60
2017-10-03T06:09:00.508Z,7.90
2017-10-03T06:11:28.262Z,7.63
2017-10-03T06:13:56.028Z,9.03
2017-10-03T06:16:23.884Z,7.60
2017-10-03T06:18:51.612Z,16.60
2017-10-03T06:21:19.363Z,19.10
2017-10-03T06:23:47.136Z,10.10
2017-10-03T06:26:15.053Z,11.73
2017-10-03T06:28:42.786Z,10.90
2017-10-03T06:31:10.545Z,11.40
2017-10-03T06:33:38.350Z,11.13
2017-10-03T06:36:06.063Z,10.93
2017-10-03T06:38:33.764Z,9.57
2017-10-03T06:41:01.560Z,9.90
2017-10-03T06:43:29.373Z,10.07
2017-10-03T06:45:57.095Z,10.23
2017-10-03T06:48:24.880Z,9.50
2017-10-03T06:50:52.608Z,11.20
2017-10-03T06:53:20.342Z,10.57
2017-10-03T06:55:48.101Z,10.70
2017-10-03T06:58:15.880Z,9.57
2017-10-03T07:00:43.585Z,10.70
2017-10-03T07:03:11.329Z,9.70
2017-10-03T07:05:39.099Z,8.63
2017-10-03T07:08:06.839Z,9.50
2017-10-03T07:10:35.057Z,10.37
2017-10-03T07:13:03.299Z,9.70
2017-10-03T07:15:31.029Z,10.10
2017-10-03T07:17:58.849Z,9.73
2017-10-03T07:20:26.597Z,9.40
2017-10-03T07:22:54.298Z,9.60
2017-10-03T07:25:22.034Z,9.93
2017-10-03T07:27:49.836Z,11.20
2017-10-03T07:30:17.620Z,11.53
2017-10-03T07:32:45.367Z,11.30
2017-10-03T07:35:13.171Z,11.33
2017-10-03T07:37:40.955Z,10.20
2017-10-03T07:40:09.231Z,10.90
2017-10-03T07:42:37.069Z,17.60
2017-10-03T07:45:04.861Z,12.43
2017-10-03T07:47:32.589Z,12.07
2017-10-03T07:50:00.397Z,12.70
2017-10-03T07:52:28.110Z,12.07
2017-10-03T07:54:55.940Z,11.23
2017-10-03T07:57:24.195Z,10.10
2017-10-03T07:59:51.897Z,9.30
2017-10-03T08:02:19.760Z,9.10
2017-10-03T08:04:47.821Z,9.67
2017-10-03T08:07:15.602Z,9.40
2017-10-03T08:09:43.343Z,9.53
2017-10-03T08:12:11.082Z,9.50
2017-10-03T08:14:38.836Z,10.10
2017-10-03T08:17:07.472Z,8.83
2017-10-03T08:19:35.258Z,7.73
2017-10-03T08:22:03.038Z,9.43
2017-10-03T08:24:30.949Z,10.50
2017-10-03T08:26:58.758Z,14.20
2017-10-03T08:29:27.172Z,14.17
2017-10-03T08:31:55.842Z,15.67
2017-10-03T08:34:23.637Z,16.50
2017-10-03T08:36:51.605Z,15.37
2017-10-03T08:39:19.627Z,16.23
2017-10-03T08:41:47.434Z,16.20
2017-10-03T08:44:15.246Z,13.43
2017-10-03T08:46:43.050Z,17.67
2017-10-03T08:49:10.905Z,15.00
2017-10-03T08:51:38.864Z,14.73
2017-10-03T08:54:06.717Z,14.83
2017-10-03T08:56:34.518Z,14.87
2017-10-03T08:59:02.361Z,15.50
2017-10-03T09:01:30.066Z,14.00
2017-10-03T09:03:57.758Z,12.40
2017-10-03T09:06:25.530Z,15.80
2017-10-03T09:08:53.328Z,11.90
2017-10-03T09:11:21.233Z,14.00
2017-10-03T09:13:49.124Z,13.97
2017-10-03T09:16:16.870Z,15.63
2017-10-03T09:18:45.451Z,15.37
2017-10-03T09:21:13.324Z,14.90
2017-10-03T09:23:41.163Z,17.60
2017-10-03T09:26:08.896Z,15.33
2017-10-03T09:28:36.636Z,14.00
2017-10-03T09:31:04.427Z,16.13
2017-10-03T09:33:32.197Z,16.40
2017-10-03T09:36:00.092Z,19.17
2017-10-03T09:38:27.779Z,16.60
2017-10-03T09:40:55.525Z,31.90
2017-10-03T09:43:23.327Z,21.43
2017-10-03T09:45:51.079Z,20.47
2017-10-03T09:48:18.779Z,15.33
2017-10-03T09:50:46.678Z,18.33
2017-10-03T09:53:14.771Z,19.77
2017-10-03T09:55:42.527Z,16.90
2017-10-03T09:58:11.199Z,17.87
2017-10-03T10:00:38.958Z,16.90
2017-10-03T10:03:06.707Z,16.50
2017-10-03T10:05:34.423Z,20.70
2017-10-03T10:08:02.228Z,16.33
2017-10-03T10:10:30.677Z,15.40
2017-10-03T10:12:58.376Z,16.50
2017-10-03T10:15:26.567Z,17.23
2017-10-03T10:17:54.306Z,15.07
2017-10-03T10:20:22.083Z,12.80
2017-10-03T10:22:50.423Z,10.73
2017-10-03T10:25:18.181Z,10.87
2017-10-03T10:27:46.926Z,10.33
2017-10-03T10:30:14.711Z,6.60
2017-10-03T10:32:43.295Z,6.57
2017-10-03T10:35:11.077Z,4.87
2017-10-03T10:37:38.829Z,5.90
2017-10-03T10:40:06.568Z,8.57
2017-10-03T10:42:34.293Z,10.33
2017-10-03T10:45:02.060Z,13.20
2017-10-03T10:47:29.782Z,15.00
2017-10-03T10:49:57.543Z,12.47
2017-10-03T10:52:25.216Z,10.17
2017-10-03T10:54:52.988Z,11.07
2017-10-03T10:57:20.879Z,12.73
2017-10-03T10:59:48.729Z,9.60
2017-10-03T11:02:16.502Z,9.90
2017-10-03T11:04:44.195Z,10.70
2017-10-03T11:07:11.998Z,10.00
2017-10-03T11:09:39.661Z,12.60
2017-10-03T11:12:07.381Z,11.13
2017-10-03T11:14:35.294Z,11.90
2017-10-03T11:17:03.179Z,11.93
2017-10-03T11:19:30.955Z,11.17
2017-10-03T11:21:58.689Z,10.53
2017-10-03T11:24:44.874Z,8.90
2017-10-03T11:27:12.677Z,7.10
2017-10-03T11:29:40.482Z,7.43
2017-10-03T11:32:08.204Z,20.00
2017-10-03T11:34:35.995Z,7.47
2017-10-03T11:37:03.788Z,2.13
2017-10-03T11:39:31.495Z,1.23
2017-10-03T11:41:59.302Z,1.77
2017-10-03T11:44:26.996Z,0.40
2017-10-03T11:46:54.673Z,0.53
2017-10-03T11:49:22.420Z,0.30
2017-10-03T11:51:50.119Z,0.57
2017-10-03T11:54:17.857Z,2.33
2017-10-03T11:56:45.534Z,3.10
2017-10-03T11:59:13.268Z,1.90
2017-10-03T12:01:41.112Z,9.57
2017-10-03T12:04:09.004Z,7.83
2017-10-03T12:06:36.689Z,10.50
2017-10-03T12:09:04.597Z,2.10
2017-10-03T12:11:32.380Z,3.33
2017-10-03T12:14:00.090Z,12.33
2017-10-03T12:16:27.964Z,5.40
2017-10-03T12:18:55.681Z,16.73
2017-10-03T12:21:23.673Z,1.57
2017-10-03T12:23:52.280Z,5.07
2017-10-03T12:26:19.985Z,3.20
2017-10-03T12:28:47.764Z,0.40
2017-10-03T12:31:15.457Z,0.30
2017-10-03T12:33:43.212Z,0.90
2017-10-03T12:36:10.997Z,0.97
2017-10-03T12:38:38.851Z,0.93
2017-10-03T12:41:06.734Z,0.20
2017-10-03T12:43:34.781Z,5.90
2017-10-03T12:46:02.855Z,2.80
2017-10-03T12:48:30.663Z,2.30
2017-10-03T12:50:59.332Z,1.70
2017-10-03T12:53:27.427Z,0.40
2017-10-03T12:55:55.164Z,0.40
2017-10-03T12:58:23.021Z,0.30
2017-10-03T13:00:50.812Z,0.23
2017-10-03T13:03:18.675Z,0.60
2017-10-03T13:05:46.517Z,0.57
2017-10-03T13:08:16.116Z,0.50
2017-10-03T13:10:44.325Z,2.17
2017-10-03T13:13:12.650Z,16.20
2017-10-03T13:15:40.491Z,0.53
2017-10-03T13:18:08.264Z,0.57
2017-10-03T13:20:36.401Z,0.60
2017-10-03T13:23:04.870Z,0.40
2017-10-03T13:25:32.743Z,0.70
2017-10-03T13:28:00.701Z,1.20
2017-10-03T13:30:28.746Z,1.17
2017-10-03T13:32:56.510Z,0.30
2017-10-03T13:35:24.368Z,0.53
2017-10-03T13:37:52.238Z,0.33
2017-10-03T13:40:21.943Z,0.30
2017-10-03T13:42:49.763Z,0.37
2017-10-03T13:45:19.836Z,0.40
2017-10-03T13:47:47.779Z,0.50
2017-10-03T13:50:15.949Z,0.43
2017-10-03T13:52:43.927Z,0.57
2017-10-03T13:55:12.457Z,0.40
2017-10-03T13:57:40.215Z,0.40
2017-10-03T14:00:08.047Z,0.30
2017-10-03T14:02:37.816Z,0.70
2017-10-03T14:05:05.645Z,0.53
2017-10-03T14:07:33.503Z,3.10
2017-10-03T14:10:01.233Z,1.67
2017-10-03T14:12:29.288Z,0.30
2017-10-03T14:14:57.169Z,0.30
2017-10-03T14:17:25.737Z,0.30
2017-10-03T14:19:54.252Z,0.20
2017-10-03T14:22:22.062Z,0.33
2017-10-03T14:24:49.883Z,0.67
2017-10-03T14:27:17.691Z,0.47
2017-10-03T14:29:45.542Z,0.20
2017-10-03T14:32:14.240Z,1.17
2017-10-03T14:34:42.045Z,1.30
2017-10-03T14:37:09.747Z,0.60
2017-10-03T14:39:37.625Z,0.60
2017-10-03T14:42:05.482Z,2.00
2017-10-03T14:44:33.359Z,1.00
2017-10-03T14:47:01.105Z,0.30
2017-10-03T14:49:29.062Z,0.50
2017-10-03T14:51:56.983Z,0.40
2017-10-03T14:54:24.787Z,0.50
2017-10-03T14:56:52.571Z,0.50
2017-10-03T14:59:20.360Z,0.40
2017-10-03T15:01:49.417Z,1.47
2017-10-03T15:04:17.203Z,2.63
2017-10-03T15:06:46.327Z,5.53
2017-10-03T15:09:14.834Z,2.23
2017-10-03T15:11:42.641Z,2.70
2017-10-03T15:14:10.657Z,2.60
2017-10-03T15:16:38.415Z,19.53
2017-10-03T15:19:06.471Z,3.77
2017-10-03T15:21:34.208Z,6.50
2017-10-03T15:24:01.934Z,1.87
2017-10-03T15:26:29.765Z,3.40
2017-10-03T15:28:58.214Z,3.00
2017-10-03T15:31:26.057Z,2.10
2017-10-03T15:33:53.756Z,0.80
2017-10-03T15:36:21.554Z,1.33
2017-10-03T15:38:49.277Z,2.07
2017-10-03T15:41:17.030Z,1.50
2017-10-03T15:43:44.807Z,4.10
2017-10-03T15:46:12.529Z,10.97
2017-10-03T15:48:40.277Z,8.53
2017-10-03T15:51:08.150Z,2.37
2017-10-03T15:53:35.836Z,3.10
2017-10-03T15:56:03.605Z,1.67
2017-10-03T15:58:31.346Z,0.80
2017-10-03T16:00:59.237Z,1.30
2017-10-03T16:03:27.875Z,3.20
2017-10-03T16:05:55.639Z,5.63
2017-10-03T16:08:24.121Z,4.97
2017-10-03T16:10:51.832Z,3.60
2017-10-03T16:13:19.732Z,4.50
2017-10-03T16:15:47.424Z,4.23
2017-10-03T16:18:15.125Z,7.17
2017-10-03T16:20:42.863Z,4.60
2017-10-03T16:23:10.794Z,2.90
2017-10-03T16:25:38.542Z,10.90
2017-10-03T16:28:06.324Z,14.33
2017-10-03T16:30:34.088Z,6.50
2017-10-03T16:33:01.813Z,3.70
2017-10-03T16:35:29.593Z,2.13
2017-10-03T16:37:57.278Z,2.37
2017-10-03T16:40:25.141Z,1.00
2017-10-03T16:42:52.832Z,1.50
2017-10-03T16:45:20.531Z,1.10
2017-10-03T16:47:48.276Z,1.37
2017-10-03T16:50:15.960Z,1.17
2017-10-03T16:52:43.723Z,0.73
2017-10-03T16:55:11.501Z,0.50
2017-10-03T16:57:39.203Z,0.70
2017-10-03T17:00:07.127Z,0.40
2017-10-03T17:02:34.905Z,0.40
2017-10-03T17:05:02.666Z,0.40
2017-10-03T17:07:30.376Z,0.50
2017-10-03T17:09:58.145Z,0.53
2017-10-03T17:12:25.991Z,0.53
2017-10-03T17:14:53.767Z,0.50
2017-10-03T17:17:21.654Z,0.40
2017-10-03T17:19:49.422Z,0.40
2017-10-03T17:22:17.189Z,0.40
2017-10-03T17:24:45.081Z,0.40
2017-10-03T17:27:12.914Z,0.40
2017-10-03T17:29:40.687Z,0.40
2017-10-03T17:32:08.505Z,0.40
2017-10-03T17:34:37.599Z,1.80
2017-10-03T17:37:05.380Z,0.70
2017-10-03T17:39:33.960Z,1.10
2017-10-03T17:42:01.781Z,0.67
2017-10-03T17:44:29.512Z,1.10
2017-10-03T17:46:57.207Z,1.30
2017-10-03T17:49:24.997Z,0.50
2017-10-03T17:51:52.832Z,0.20
2017-10-03T17:54:22.080Z,0.40
2017-10-03T17:56:49.921Z,0.60
2017-10-03T17:59:17.704Z,0.33
2017-10-03T18:01:45.508Z,0.30
2017-10-03T18:04:14.878Z,0.60
2017-10-03T18:06:44.017Z,1.87
2017-10-03T18:09:11.965Z,1.03
2017-10-03T18:11:39.851Z,1.43
2017-10-03T18:14:07.702Z,1.83
2017-10-03T18:16:35.610Z,0.60
2017-10-03T18:19:03.555Z,1.20
2017-10-03T18:21:31.569Z,0.70
2017-10-03T18:23:59.489Z,0.50
2017-10-03T18:26:28.136Z,0.33
2017-10-03T18:28:56.302Z,1.27
2017-10-03T18:31:24.681Z,1.90
2017-10-03T18:33:54.296Z,2.83
2017-10-03T18:36:22.185Z,2.47
2017-10-03T18:38:51.567Z,0.97
2017-10-03T18:41:20.959Z,1.27
2017-10-03T18:43:48.818Z,1.27
2017-10-03T18:46:16.681Z,2.77
2017-10-03T18:48:44.451Z,0.83
2017-10-03T18:51:13.081Z,0.80
2017-10-03T18:53:40.946Z,0.90
2017-10-03T18:56:08.718Z,2.00
2017-10-03T18:58:36.459Z,1.57
2017-10-03T19:01:04.319Z,0.50
2017-10-03T19:03:32.783Z,0.80
2017-10-03T19:06:00.611Z,0.53
2017-10-03T19:08:29.543Z,0.80
2017-10-03T19:10:59.460Z,0.63
2017-10-03T19:13:28.038Z,1.10
2017-10-03T19:15:56.275Z,0.40
2017-10-03T19:18:24.192Z,1.10
2017-10-03T19:20:52.550Z,1.20
2017-10-03T19:23:20.418Z,0.60
2017-10-03T19:25:48.462Z,1.17
2017-10-03T19:28:16.634Z,0.90
2017-10-03T19:30:44.714Z,0.40
2017-10-03T19:33:12.718Z,0.40
2017-10-03T19:35:40.738Z,0.30
2017-10-03T19:38:09.982Z,0.63
2017-10-03T19:40:39.224Z,1.10
2017-10-03T19:43:07.919Z,2.53
2017-10-03T19:45:37.040Z,1.63
2017-10-03T19:48:06.122Z,1.00
2017-10-03T19:50:33.961Z,0.87
2017-10-03T19:53:01.787Z,0.60
2017-10-03T19:55:29.628Z,0.63
2017-10-03T19:57:57.392Z,0.73
2017-10-03T20:00:25.854Z,1.23
2017-10-03T20:02:54.740Z,0.60
2017-10-03T20:05:22.501Z,0.80
2017-10-03T20:07:50.373Z,0.80
2017-10-03T20:10:19.217Z,0.47
2017-10-03T20:12:47.938Z,0.77
2017-10-03T20:15:15.705Z,0.70
2017-10-03T20:17:43.408Z,0.53
2017-10-03T20:20:11.170Z,0.43
2017-10-03T20:22:39.129Z,0.83
2017-10-03T20:25:06.914Z,0.53
2017-10-03T20:27:34.680Z,0.60
2017-10-03T20:30:03.680Z,0.67
2017-10-03T20:32:31.377Z,0.73
2017-10-03T20:34:59.131Z,0.63
2017-10-03T20:37:26.830Z,0.80
2017-10-03T20:39:54.605Z,0.87
2017-10-03T20:42:22.384Z,1.23
2017-10-03T20:44:50.110Z,0.93
2017-10-03T20:47:18.347Z,2.33
2017-10-03T20:49:47.198Z,0.70
2017-10-03T20:52:14.918Z,0.67
2017-10-03T20:54:42.625Z,0.77
2017-10-03T20:57:10.394Z,0.60
2017-10-03T20:59:38.267Z,0.50
2017-10-03T21:02:06.039Z,0.47
2017-10-03T21:04:33.807Z,0.60
2017-10-03T21:07:02.127Z,1.17
2017-10-03T21:09:30.085Z,0.80
2017-10-03T21:11:57.910Z,0.40
2017-10-03T21:14:26.509Z,0.57
2017-10-03T21:16:54.239Z,0.33
2017-10-03T21:19:21.981Z,0.70
2017-10-03T21:21:49.670Z,0.67
2017-10-03T21:24:17.421Z,0.70
2017-10-03T21:26:45.124Z,1.40
2017-10-03T21:29:12.911Z,1.13
2017-10-03T21:31:41.566Z,0.90
2017-10-03T21:34:09.282Z,0.53
2017-10-03T21:36:37.046Z,0.97
2017-10-03T21:39:04.851Z,1.00
2017-10-03T21:41:32.732Z,1.20
2017-10-03T21:44:01.454Z,0.67
2017-10-03T21:46:29.599Z,0.80
2017-10-03T21:48:57.827Z,0.57
2017-10-03T21:51:25.792Z,0.70
2017-10-03T21:53:53.914Z,0.60
2017-10-03T21:56:21.871Z,0.60
2017-10-03T21:58:49.685Z,0.87
2017-10-03T22:01:17.413Z,0.60
2017-10-03T22:03:45.125Z,0.90
2017-10-03T22:06:12.867Z,0.90
2017-10-03T22:08:40.618Z,1.60
2017-10-03T22:11:08.316Z,0.70
2017-10-03T22:13:36.035Z,1.03
2017-10-03T22:16:03.778Z,1.27
2017-10-03T22:18:31.513Z,0.83
2017-10-03T22:20:59.217Z,2.30
2017-10-03T22:23:27.088Z,1.50
2017-10-03T22:25:54.795Z,1.90
2017-10-03T22:28:22.476Z,2.07
2017-10-03T22:30:50.232Z,1.00
2017-10-03T22:33:17.953Z,1.43
2017-10-03T22:35:45.736Z,1.07
2017-10-03T22:38:13.455Z,1.00
2017-10-03T22:40:41.204Z,1.10
2017-10-03T22:43:08.898Z,1.50
2017-10-03T22:45:36.603Z,0.83
2017-10-03T22:48:04.308Z,1.30
2017-10-03T22:50:32.059Z,1.53
2017-10-03T22:52:59.746Z,1.10
2017-10-03T22:55:27.501Z,1.13
2017-10-03T22:57:55.226Z,1.20
2017-10-03T23:00:22.904Z,1.20
2017-10-03T23:02:50.620Z,0.60
2017-10-03T23:05:18.301Z,1.30
2017-10-03T23:07:46.016Z,1.00
2017-10-03T23:10:13.716Z,1.40
2017-10-03T23:12:41.462Z,2.13
2017-10-03T23:15:09.220Z,1.03
2017-10-03T23:17:36.964Z,0.77
2017-10-03T23:20:04.646Z,0.70
2017-10-03T23:22:32.326Z,1.20
2017-10-03T23:25:00.141Z,1.20
2017-10-03T23:27:27.823Z,0.80
2017-10-03T23:29:55.509Z,1.13
2017-10-03T23:32:23.221Z,1.50
2017-10-03T23:34:50.925Z,1.30
2017-10-03T23:37:18.682Z,1.13
2017-10-03T23:39:46.972Z,1.60
2017-10-03T23:42:14.718Z,0.90
2017-10-03T23:44:42.384Z,1.60
2017-10-03T23:47:10.200Z,1.37
2017-10-03T23:49:37.875Z,1.40
2017-10-03T23:52:05.614Z,1.10
2017-10-03T23:54:33.365Z,1.80
2017-10-03T23:57:01.088Z,0.97
2017-10-03T23:59:28.756Z,1.00
